Flight Track Log - Related Links

Times and Time Zones

All times are in EDT time to prevent confusion due to time zone crossing. See the EJA618 flight status page for this flight to view local times or setup timezone preferences in your user account.

Time Position Orientation Groundspeed Altitude Reporting Facility
EDT Latitude Longitude Course Direction KTS MPH feet Rate Location/Type
Tue 01:46:10 PM 30.2903 -87.6553 26° Northeast 169 194 1,200  Level Jacksonville Center
Tue 01:47:54 PM 30.3733 -87.6089 26° Northeast 199 229 7,800 3,321 Climbing Jacksonville Center
Tue 01:48:49 PM 30.4308 -87.5781 25° Northeast 259 298 10,000 1,150 Climbing Jacksonville Center
Tue 01:49:54 PM 30.5075 -87.5383 24° Northeast 323 372 10,100  Climbing Jacksonville Center
Tue 01:50:54 PM 30.5881 -87.5014 22° Northeast 328 377 10,000 -50 Descending Jacksonville Center
Tue 01:51:54 PM 30.6625 -87.4639 23° Northeast 302 348 10,000  Level Jacksonville Center
Tue 01:52:54 PM 30.7417 -87.4072 32° Northeast 308 354 10,000 850 Level Jacksonville Center
Tue 01:53:54 PM 30.8047 -87.3353 44° Northeast 321 369 11,700 1,750 Climbing Jacksonville Center
Tue 01:54:54 PM 30.8211 -87.2297 80° East 305 351 13,500 1,950 Climbing Jacksonville Center
Tue 01:55:54 PM 30.8142 -87.1206 94° East 312 359 15,600 2,200 Climbing Jacksonville Center
Tue 01:56:54 PM 30.8739 -87.0217 55° Northeast 329 379 17,900 2,000 Climbing Jacksonville Center
Tue 01:57:54 PM 30.9411 -86.9444 45° Northeast 329 379 19,600 1,800 Climbing Jacksonville Center
Tue 01:58:54 PM 31.0125 -86.8653 44° Northeast 335 386 21,500 1,750 Climbing Jacksonville Center
Tue 01:59:54 PM 31.0750 -86.8000 42° Northeast 340 391 23,100 1,474 Climbing Jacksonville Center
Tue 02:01:45 PM 31.2117 -86.6583 42° Northeast 351 404 25,700 1,298 Climbing Atlanta Center
Tue 02:02:45 PM 31.3125 -86.6297 14° North 346 398 26,800 1,150 Climbing Atlanta Center
Tue 02:03:45 PM 31.4114 -86.5961 16° North 356 410 28,000 1,100 Climbing Atlanta Center
Tue 02:04:45 PM 31.5164 -86.5625 15° North 369 425 29,000 1,250 Climbing Atlanta Center
Tue 02:05:45 PM 31.6194 -86.5264 17° North 375 432 30,500 1,600 Climbing Atlanta Center
Tue 02:06:45 PM 31.7122 -86.4728 26° Northeast 381 438 32,200 1,600 Climbing Atlanta Center
Tue 02:07:45 PM 31.7828 -86.3817 48° Northeast 365 420 33,700 900 Climbing Atlanta Center
Tue 02:08:45 PM 31.8514 -86.2908 48° Northeast 365 420 34,000 850 Climbing Atlanta Center
Tue 02:09:45 PM 31.9175 -86.2017 49° Northeast 365 420 35,400 1,500 Climbing Atlanta Center
Tue 02:10:45 PM 31.9839 -86.1128 49° Northeast 360 414 37,000 1,500 Climbing Atlanta Center
Tue 02:11:45 PM 32.0561 -86.0264 45° Northeast 360 414 38,400 1,000 Climbing Atlanta Center
Tue 02:12:45 PM 32.1264 -85.9372 47° Northeast 360 414 39,000 300 Climbing Atlanta Center
Tue 02:13:45 PM 32.1969 -85.8428 49° Northeast 365 420 39,000  Level Atlanta Center
Tue 02:14:45 PM 32.2714 -85.7411 49° Northeast 365 420 39,000  Level Atlanta Center
Tue 02:15:45 PM 32.3392 -85.6539 47° Northeast 365 420 39,000  Level Atlanta Center
Tue 02:16:45 PM 32.4031 -85.5692 48° Northeast 354 407 39,000 800 Level Atlanta Center
Tue 02:17:45 PM 32.4686 -85.4839 48° Northeast 354 407 40,600 1,000 Climbing Atlanta Center
Tue 02:18:45 PM 32.5303 -85.3989 49° Northeast 349 402 41,000 200 Climbing Atlanta Center
Tue 02:19:45 PM 32.6022 -85.3111 46° Northeast 349 402 41,000  Level Atlanta Center
Tue 02:20:45 PM 32.6697 -85.2158 50° Northeast 361 415 41,000  Level Atlanta Center
Tue 02:21:45 PM 32.7394 -85.1253 48° Northeast 366 421 41,000  Level Atlanta Center
Tue 02:22:45 PM 32.8069 -85.0422 46° Northeast 373 429 41,000  Level Atlanta Center
Tue 02:23:45 PM 32.8744 -84.9464 50° Northeast 380 437 41,000  Level Atlanta Center
Tue 02:24:45 PM 32.9483 -84.8508 47° Northeast 385 443 41,000  Level Atlanta Center
Tue 02:25:45 PM 33.0242 -84.7450 49° Northeast 385 443 41,000  Level Atlanta Center
Tue 02:26:45 PM 33.0936 -84.6489 49° Northeast 385 443 41,000  Level Atlanta Center
Tue 02:27:45 PM 33.1650 -84.5575 47° Northeast 385 443 41,000  Level Atlanta Center
Tue 02:28:45 PM 33.2342 -84.4611 49° Northeast 385 443 41,000  Level Atlanta Center
Tue 02:29:45 PM 33.3033 -84.3669 49° Northeast 385 443 41,000  Level Atlanta Center
Tue 02:30:45 PM 33.3703 -84.2725 50° Northeast 380 437 41,000  Level Atlanta Center
Tue 02:31:45 PM 33.4394 -84.1783 49° Northeast 380 437 41,000  Level Atlanta Center
Tue 02:32:45 PM 33.5083 -84.0811 50° Northeast 380 437 41,000  Level Atlanta Center
Tue 02:33:45 PM 33.5772 -83.9839 50° Northeast 380 437 41,000  Level Atlanta Center
Tue 02:34:45 PM 33.6458 -83.8917 48° Northeast 380 437 41,000  Level Atlanta Center
Tue 02:35:45 PM 33.7167 -83.7967 48° Northeast 380 437 41,000 -250 Level Atlanta Center
Tue 02:36:45 PM 33.7856 -83.7014 49° Northeast 385 443 40,500 -950 Descending Atlanta Center
Tue 02:37:45 PM 33.8519 -83.6086 49° Northeast 375 432 39,100 -1,350 Descending Atlanta Center
Tue 02:38:45 PM 33.9206 -83.5131 49° Northeast 370 426 37,800 -1,250 Descending Atlanta Center
Tue 02:39:45 PM 33.9742 -83.4250 54° Northeast 370 426 36,600 -1,500 Descending Atlanta Center
Tue 02:40:45 PM 34.0239 -83.3119 62° Northeast 364 419 34,800 -1,650 Descending Atlanta Center
Tue 02:41:45 PM 34.0753 -83.2061 60° Northeast 369 425 33,300 -900 Descending Atlanta Center
Tue 02:42:45 PM 34.1267 -83.1003 60° Northeast 364 419 33,000 -150 Descending Atlanta Center
Tue 02:43:45 PM 34.1844 -83.0067 53° Northeast 351 404 33,000  Level Atlanta Center
Tue 02:44:45 PM 34.2567 -82.9153 46° Northeast 358 412 33,000  Level Atlanta Center
Tue 02:45:45 PM 34.3267 -82.8289 46° Northeast 358 412 33,000  Level Atlanta Center
Tue 02:47:00 PM 34.4174 -82.7799 49° Northeast  Level FlightAware Approximate
Tue 02:47:45 PM 34.4769 -82.6328 49° Northeast 369 425 33,000  Level Atlanta Center
Tue 02:48:45 PM 34.5572 -82.5381 44° Northeast 381 438 33,000  Level Atlanta Center
Tue 02:49:45 PM 34.6353 -82.4383 46° Northeast 387 445 33,000  Level Atlanta Center
Tue 02:50:45 PM 34.7133 -82.3381 47° Northeast 392 451 33,000 -150 Level Atlanta Center
Tue 02:51:45 PM 34.7933 -82.2378 46° Northeast 399 459 32,700 -1,150 Descending Atlanta Center
Tue 02:52:45 PM 34.8689 -82.1425 46° Northeast 399 459 30,700 -1,950 Descending Atlanta Center
Tue 02:53:45 PM 34.9467 -82.0419 47° Northeast 394 453 28,800 -1,750 Descending Atlanta Center
Tue 02:54:45 PM 35.0264 -81.9461 45° Northeast 394 453 27,200 -1,700 Descending Atlanta Center
Tue 02:55:45 PM 35.1189 -81.8628 36° Northeast 404 465 25,400 -1,550 Descending Atlanta Center
Tue 02:56:45 PM 35.2178 -81.7864 32° Northeast 410 472 24,100 -850 Descending Atlanta Center
Tue 02:57:45 PM 35.3122 -81.7100 33° Northeast 411 473 23,700 -700 Descending Atlanta Center
Tue 02:58:45 PM 35.4028 -81.6386 33° Northeast 395 455 22,700 -950 Descending Atlanta Center
Tue 02:59:45 PM 35.4869 -81.5722 33° Northeast 389 448 21,800 -1,050 Descending Atlanta Center
Tue 03:00:45 PM 35.5814 -81.4981 33° Northeast 394 453 20,600 -1,300 Descending Atlanta Center
Tue 03:01:45 PM 35.6778 -81.4183 34° Northeast 406 467 19,200 -800 Descending Atlanta Center
Tue 03:02:45 PM 35.7783 -81.3383 33° Northeast 401 461 19,000 -100 Descending Atlanta Center
Tue 03:03:45 PM 35.8683 -81.2661 33° Northeast 393 452 19,000  Level Atlanta Center
Tue 03:04:45 PM 35.9564 -81.1914 34° Northeast 381 438 19,000 -500 Level Atlanta Center
Tue 03:05:45 PM 36.0231 -81.0967 49° Northeast 361 415 18,000 -1,650 Descending Atlanta Center
Tue 03:06:45 PM 36.0553 -80.9694 73° East 361 415 15,700 -2,400 Descending Atlanta Center
Tue 03:07:45 PM 36.0897 -80.8475 71° East 367 422 13,200 -2,250 Descending Atlanta Center
Tue 03:08:45 PM 36.1164 -80.7514 71° East 355 409 11,200 -1,100 Descending Atlanta Center
Tue 03:09:45 PM 36.1281 -80.6453 82° East 324 373 11,000 -300 Descending Atlanta Center
Tue 03:10:45 PM 36.1122 -80.5200 99° East 324 373 10,600 -1,100 Descending Atlanta Center
Tue 03:11:45 PM 36.0986 -80.4181 99° East 316 364 8,800 -2,250 Descending Atlanta Center
Tue 03:12:45 PM 36.0900 -80.3336 97° East 293 337 6,100 -2,750 Descending Atlanta Center
Tue 03:13:45 PM 36.0769 -80.2494 101° East 280 322 3,300 -2,000 Descending Atlanta Center
Tue 03:14:45 PM 36.0794 -80.1953 87° East 196 226 2,100 3,850 Descending Atlanta Center
Tue 03:15:45 PM 36.1058 -80.1761 30° Northeast 138 159 11,000 4,450 Climbing Atlanta Center
Tue 03:16:45 PM 36.1150 -80.1294 76° East 138 159 11,000  Level Atlanta Center
Tue 03:18:00 PM 36.1333 -80.2167 292° West  Level FlightAware Approximate

Login

Don't have an account? Register now (free) for customized features, flight alerts, and more!